createdAt,value
2022-07-27T00:02:38.466Z,0.85
2022-07-27T00:12:40.756Z,0.80
2022-07-27T00:22:43.443Z,0.80
2022-07-27T00:32:45.760Z,0.80
2022-07-27T00:42:49.283Z,0.98
2022-07-27T00:52:56.588Z,0.90
2022-07-27T01:02:59.874Z,0.73
2022-07-27T01:13:07.496Z,1.00
2022-07-27T01:23:15.474Z,0.77
2022-07-27T01:33:18.245Z,0.90
2022-07-27T01:43:22.245Z,0.85
2022-07-27T01:53:29.293Z,0.80
2022-07-27T02:03:32.232Z,1.00
2022-07-27T02:13:37.207Z,0.90
2022-07-27T02:23:40.450Z,1.00
2022-07-27T02:33:43.178Z,0.80
2022-07-27T02:43:45.868Z,1.15
2022-07-27T02:53:49.839Z,0.75
2022-07-27T03:13:55.302Z,0.90
2022-07-27T03:23:58.270Z,0.95
2022-07-27T03:34:02.335Z,0.97
2022-07-27T03:44:06.577Z,0.93
2022-07-27T03:54:09.638Z,0.90
2022-07-27T04:04:12.741Z,0.77
2022-07-27T04:14:16.299Z,1.03
2022-07-27T04:24:20.397Z,1.00
2022-07-27T04:34:24.155Z,1.08
2022-07-27T04:44:26.373Z,1.43
2022-07-27T04:54:29.266Z,1.10
2022-07-27T05:04:35.656Z,1.27
2022-07-27T05:14:38.684Z,0.80
2022-07-27T05:24:41.147Z,1.10
2022-07-27T05:34:46.370Z,1.10
2022-07-27T05:44:49.788Z,0.77
2022-07-27T06:04:55.349Z,1.30
2022-07-27T06:14:59.369Z,1.10
2022-07-27T06:25:01.788Z,1.25
2022-07-27T06:35:04.975Z,1.00
2022-07-27T06:45:09.512Z,1.30
2022-07-27T06:55:12.525Z,1.37
2022-07-27T07:05:15.638Z,1.27
2022-07-27T07:15:18.417Z,1.35
2022-07-27T07:25:21.277Z,1.20
2022-07-27T07:35:24.657Z,1.42
2022-07-27T07:45:28.744Z,1.50
2022-07-27T07:55:32.267Z,1.50
2022-07-27T08:05:36.992Z,1.33
2022-07-27T08:15:42.534Z,1.48
2022-07-27T08:25:47.732Z,1.40
2022-07-27T08:35:50.784Z,1.62
2022-07-27T08:56:06.643Z,1.73
2022-07-27T09:06:09.610Z,1.50
2022-07-27T09:26:32.340Z,1.12
2022-07-27T09:36:55.593Z,1.02
2022-07-27T09:46:58.328Z,1.50
2022-07-27T09:57:02.865Z,1.12
2022-07-27T10:07:10.631Z,0.82
2022-07-27T10:17:14.118Z,1.23
2022-07-27T10:27:30.318Z,0.80
2022-07-27T10:37:37.089Z,0.60
2022-07-27T10:47:49.410Z,0.60
2022-07-27T10:57:52.988Z,0.80
2022-07-27T11:08:34.502Z,0.90
2022-07-27T11:18:29.402Z,0.90
2022-07-27T11:28:33.012Z,0.75
2022-07-27T11:38:53.903Z,0.77
2022-07-27T11:49:07.629Z,1.20
2022-07-27T11:59:19.029Z,0.82
2022-07-27T12:09:23.343Z,1.13
2022-07-27T12:19:25.990Z,0.80
2022-07-27T12:29:29.208Z,0.90
2022-07-27T12:39:33.409Z,1.17
2022-07-27T12:49:36.203Z,1.12
2022-07-27T12:59:40.006Z,0.90
2022-07-27T13:10:03.656Z,1.00
2022-07-27T13:20:10.888Z,1.10
2022-07-27T13:30:15.738Z,1.05
2022-07-27T13:40:18.448Z,1.25
2022-07-27T13:50:22.642Z,0.98
2022-07-27T14:00:26.606Z,1.40
2022-07-27T14:10:32.392Z,1.10
2022-07-27T14:20:35.348Z,1.05
2022-07-27T14:30:37.897Z,1.05
2022-07-27T14:40:41.491Z,1.27
2022-07-27T14:50:44.692Z,1.40
2022-07-27T15:00:48.184Z,1.02
2022-07-27T15:10:51.504Z,1.00
2022-07-27T15:20:54.363Z,1.15
2022-07-27T15:30:56.937Z,1.30
2022-07-27T15:40:59.515Z,1.10
2022-07-27T15:51:02.261Z,1.52
2022-07-27T16:01:07.928Z,1.20
2022-07-27T16:11:14.971Z,1.10
2022-07-27T16:21:18.403Z,1.15
2022-07-27T16:31:21.195Z,1.30
2022-07-27T16:41:24.076Z,1.17
2022-07-27T16:51:26.718Z,1.15
2022-07-27T17:01:29.326Z,1.45
2022-07-27T17:11:32.302Z,1.20
2022-07-27T17:21:39.973Z,1.10
2022-07-27T17:31:43.002Z,1.20
2022-07-27T17:41:45.791Z,1.35
2022-07-27T18:01:50.785Z,1.25
2022-07-27T18:11:53.733Z,1.50
2022-07-27T18:21:56.371Z,1.37
2022-07-27T18:42:04.123Z,1.35
2022-07-27T18:52:06.716Z,1.50
2022-07-27T19:02:09.343Z,1.40
2022-07-27T19:12:12.162Z,1.23
2022-07-27T19:22:15.580Z,1.20
2022-07-27T19:32:18.146Z,1.45
2022-07-27T19:42:21.099Z,1.33
2022-07-27T19:52:23.507Z,1.23
2022-07-27T20:02:26.001Z,1.50
2022-07-27T20:12:29.962Z,1.40
2022-07-27T20:22:33.106Z,1.27
2022-07-27T20:32:36.618Z,1.40
2022-07-27T20:52:44.605Z,1.60
2022-07-27T21:02:48.698Z,1.40
2022-07-27T21:12:52.067Z,1.50
2022-07-27T21:23:13.015Z,1.58
2022-07-27T21:33:15.834Z,1.30
2022-07-27T21:43:18.919Z,1.50
2022-07-27T21:53:21.104Z,1.73
2022-07-27T22:03:24.658Z,1.40
2022-07-27T22:13:28.425Z,1.45
2022-07-27T22:23:30.705Z,1.52
2022-07-27T22:33:33.725Z,1.48
2022-07-27T22:43:36.580Z,1.42
2022-07-27T22:53:38.813Z,1.62
2022-07-27T23:03:41.134Z,1.73
2022-07-27T23:13:44.168Z,1.40
2022-07-27T23:23:52.221Z,1.90
2022-07-27T23:33:56.444Z,1.60
2022-07-27T23:43:58.705Z,1.45
2022-07-27T23:54:00.902Z,1.50
